createdAt,value
2022-12-26T00:01:51.540Z,24.15
2022-12-26T00:04:48.931Z,26.45
2022-12-26T00:07:10.206Z,26.77
2022-12-26T00:09:38.491Z,26.45
2022-12-26T00:12:07.346Z,25.58
2022-12-26T00:14:35.643Z,25.38
2022-12-26T00:17:03.985Z,24.20
2022-12-26T00:19:32.279Z,24.83
2022-12-26T00:22:00.574Z,23.95
2022-12-26T00:24:30.245Z,24.95
2022-12-26T00:26:59.036Z,23.83
2022-12-26T00:29:27.680Z,24.90
2022-12-26T00:31:55.998Z,25.52
2022-12-26T00:34:24.301Z,25.23
2022-12-26T00:36:52.577Z,24.75
2022-12-26T00:39:20.885Z,24.80
2022-12-26T00:41:50.562Z,24.42
2022-12-26T00:44:18.948Z,24.88
2022-12-26T00:46:47.260Z,24.55
2022-12-26T00:49:15.600Z,24.60
2022-12-26T00:51:44.040Z,23.63
2022-12-26T00:54:12.381Z,22.00
2022-12-26T00:56:40.644Z,23.60
2022-12-26T00:59:10.358Z,22.40
2022-12-26T01:01:38.844Z,22.02
2022-12-26T01:04:07.301Z,20.85
2022-12-26T01:06:35.839Z,20.63
2022-12-26T01:09:04.204Z,19.90
2022-12-26T01:11:41.714Z,19.52
2022-12-26T01:14:16.052Z,20.20
2022-12-26T01:16:46.878Z,19.05
2022-12-26T01:19:15.917Z,19.98
2022-12-26T01:21:44.224Z,19.50
2022-12-26T01:24:13.830Z,18.65
2022-12-26T01:26:42.183Z,18.65
2022-12-26T01:29:11.793Z,18.23
2022-12-26T01:31:40.108Z,19.02
2022-12-26T01:34:09.791Z,18.65
2022-12-26T01:36:38.059Z,18.23
2022-12-26T01:39:06.358Z,17.52
2022-12-26T01:41:34.838Z,17.42
2022-12-26T01:44:05.727Z,18.52
2022-12-26T01:46:40.822Z,17.58
2022-12-26T01:49:16.475Z,17.83
2022-12-26T01:51:52.464Z,17.85
2022-12-26T01:54:38.270Z,17.55
2022-12-26T01:57:17.094Z,17.38
2022-12-26T01:59:48.491Z,17.80
2022-12-26T02:02:19.422Z,18.05
2022-12-26T02:05:09.754Z,18.25
2022-12-26T02:07:42.283Z,18.23
2022-12-26T02:10:16.882Z,17.08
2022-12-26T02:12:46.549Z,17.45
2022-12-26T02:15:18.815Z,18.88
2022-12-26T02:17:50.071Z,17.48
2022-12-26T02:20:22.631Z,17.15
2022-12-26T02:23:42.109Z,17.17
2022-12-26T02:27:11.103Z,17.08
2022-12-26T02:30:11.748Z,17.08
2022-12-26T02:33:47.111Z,18.00
2022-12-26T02:36:48.183Z,18.30
2022-12-26T02:39:43.609Z,18.00
2022-12-26T02:42:26.503Z,18.42
2022-12-26T02:45:17.440Z,18.90
2022-12-26T02:47:57.067Z,18.90
2022-12-26T02:50:55.462Z,18.15
2022-12-26T02:53:48.936Z,18.90
2022-12-26T02:56:42.709Z,18.35
2022-12-26T02:59:55.777Z,17.30
2022-12-26T03:02:49.883Z,17.60
2022-12-26T03:05:45.657Z,17.25
2022-12-26T03:08:50.722Z,17.60
2022-12-26T03:11:37.075Z,19.25
2022-12-26T03:14:17.640Z,17.65
2022-12-26T03:17:08.932Z,17.02
2022-12-26T03:22:35.391Z,17.83
2022-12-26T03:25:26.863Z,16.63
2022-12-26T03:27:55.825Z,17.67
2022-12-26T03:30:41.662Z,16.25
2022-12-26T03:33:30.533Z,15.50
2022-12-26T03:35:58.955Z,14.98
2022-12-26T03:38:36.574Z,15.52
2022-12-26T03:41:42.286Z,14.55
2022-12-26T03:44:41.639Z,12.75
2022-12-26T03:47:38.958Z,13.15
2022-12-26T03:50:49.248Z,13.50
2022-12-26T03:53:41.971Z,12.93
2022-12-26T03:56:38.451Z,13.68
2022-12-26T03:59:37.451Z,12.88
2022-12-26T04:02:26.464Z,11.98
2022-12-26T04:05:15.203Z,11.38
2022-12-26T04:08:07.133Z,10.52
2022-12-26T04:10:57.554Z,11.55
2022-12-26T04:13:49.205Z,11.18
2022-12-26T04:16:39.842Z,9.98
2022-12-26T04:19:25.929Z,10.75
2022-12-26T04:22:21.211Z,11.25
2022-12-26T04:25:14.898Z,10.43
2022-12-26T04:28:01.414Z,10.18
2022-12-26T04:30:53.006Z,9.23
2022-12-26T04:33:47.124Z,10.20
2022-12-26T04:36:41.252Z,9.70
2022-12-26T04:39:30.711Z,10.05
2022-12-26T04:42:17.909Z,10.15
2022-12-26T04:44:50.042Z,8.68
2022-12-26T04:47:19.812Z,11.77
2022-12-26T04:50:05.491Z,16.93
2022-12-26T04:52:47.829Z,13.75
2022-12-26T04:55:16.551Z,8.50
2022-12-26T04:57:45.015Z,7.90
2022-12-26T05:00:15.037Z,7.85
2022-12-26T05:03:02.974Z,7.97
2022-12-26T05:06:10.020Z,7.57
2022-12-26T05:09:00.046Z,7.20
2022-12-26T05:11:30.380Z,7.50
2022-12-26T05:13:59.983Z,7.20
2022-12-26T05:16:49.212Z,6.90
2022-12-26T05:19:36.740Z,6.82
2022-12-26T05:22:23.771Z,6.72
2022-12-26T05:25:10.797Z,7.10
2022-12-26T05:28:01.318Z,7.78
2022-12-26T05:30:29.993Z,6.90
2022-12-26T05:33:15.811Z,7.32
2022-12-26T05:35:45.574Z,7.75
2022-12-26T05:38:13.977Z,8.03
2022-12-26T05:40:42.244Z,7.30
2022-12-26T05:43:10.530Z,7.75
2022-12-26T05:45:38.895Z,8.50
2022-12-26T05:48:07.671Z,7.57
2022-12-26T05:50:35.937Z,7.68
2022-12-26T05:53:05.842Z,8.43
2022-12-26T05:55:34.231Z,7.73
2022-12-26T05:58:02.988Z,8.30
2022-12-26T06:00:32.355Z,8.10
2022-12-26T06:03:02.158Z,7.68
2022-12-26T06:05:30.959Z,7.38
2022-12-26T06:07:59.345Z,7.55
2022-12-26T06:10:29.831Z,6.82
2022-12-26T06:12:58.512Z,8.40
2022-12-26T06:15:26.818Z,7.57
2022-12-26T06:17:56.703Z,6.97
2022-12-26T06:20:25.002Z,7.57
2022-12-26T06:22:53.367Z,7.88
2022-12-26T06:25:21.770Z,7.20
2022-12-26T06:27:51.560Z,7.38
2022-12-26T06:30:19.899Z,7.13
2022-12-26T06:32:48.220Z,7.38
2022-12-26T06:35:16.728Z,7.88
2022-12-26T06:37:45.197Z,7.85
2022-12-26T06:40:14.717Z,7.68
2022-12-26T06:42:43.122Z,8.05
2022-12-26T06:45:13.220Z,7.45
2022-12-26T06:47:41.612Z,7.75
2022-12-26T06:50:10.952Z,7.80
2022-12-26T06:52:39.373Z,7.10
2022-12-26T06:55:08.663Z,7.78
2022-12-26T06:57:37.032Z,7.13
2022-12-26T07:00:06.693Z,7.50
2022-12-26T07:02:36.589Z,7.97
2022-12-26T07:05:06.316Z,7.00
2022-12-26T07:07:34.753Z,7.95
2022-12-26T07:10:03.137Z,6.97
2022-12-26T07:12:31.614Z,7.03
2022-12-26T07:15:01.999Z,7.60
2022-12-26T07:17:30.559Z,7.03
2022-12-26T07:20:00.303Z,7.28
2022-12-26T07:22:29.616Z,7.13
2022-12-26T07:24:57.946Z,7.05
2022-12-26T07:27:26.780Z,6.43
2022-12-26T07:29:55.310Z,6.40
2022-12-26T07:32:23.673Z,7.00
2022-12-26T07:34:52.151Z,7.40
2022-12-26T07:37:21.882Z,8.07
2022-12-26T07:39:53.753Z,7.33
2022-12-26T07:42:27.098Z,7.10
2022-12-26T07:44:55.524Z,7.78
2022-12-26T07:47:23.825Z,6.80
2022-12-26T07:49:52.166Z,7.20
2022-12-26T07:52:23.091Z,7.03
2022-12-26T07:54:51.484Z,6.95
2022-12-26T07:57:47.400Z,6.57
2022-12-26T08:00:11.451Z,6.55
2022-12-26T08:02:42.868Z,7.05
2022-12-26T08:05:11.424Z,6.80
2022-12-26T08:07:41.312Z,7.22
2022-12-26T08:10:10.558Z,5.32
2022-12-26T08:12:39.760Z,5.72
2022-12-26T08:15:10.702Z,5.22
2022-12-26T08:17:39.065Z,4.53
2022-12-26T08:20:08.700Z,4.15
2022-12-26T08:22:37.197Z,4.10
2022-12-26T08:25:08.789Z,4.50
2022-12-26T08:27:37.162Z,4.22
2022-12-26T08:30:06.600Z,4.80
2022-12-26T08:32:36.229Z,4.78
2022-12-26T08:35:08.043Z,5.53
2022-12-26T08:37:36.458Z,4.93
2022-12-26T08:40:07.609Z,5.63
2022-12-26T08:42:44.615Z,5.63
2022-12-26T08:45:25.029Z,5.80
2022-12-26T08:47:55.445Z,5.53
2022-12-26T08:50:24.785Z,6.30
2022-12-26T08:52:53.424Z,6.40
2022-12-26T08:55:23.146Z,6.47
2022-12-26T08:57:51.579Z,7.03
2022-12-26T09:00:23.914Z,7.88
2022-12-26T09:02:53.679Z,6.88
2022-12-26T09:05:22.253Z,6.85
2022-12-26T09:07:50.746Z,6.70
2022-12-26T09:10:19.145Z,6.25
2022-12-26T09:12:48.834Z,6.20
2022-12-26T09:15:17.276Z,6.43
2022-12-26T09:17:45.648Z,5.38
2022-12-26T09:20:14.019Z,5.60
2022-12-26T09:22:51.750Z,5.72
2022-12-26T09:25:20.772Z,5.85
2022-12-26T09:27:58.793Z,6.22
2022-12-26T09:30:27.979Z,5.78
2022-12-26T09:32:56.692Z,5.50
2022-12-26T09:35:25.028Z,6.05
2022-12-26T09:37:53.438Z,5.05
2022-12-26T09:40:25.981Z,5.47
2022-12-26T09:43:06.714Z,5.15
2022-12-26T09:48:33.255Z,5.20
2022-12-26T09:51:01.823Z,5.55
2022-12-26T09:53:36.650Z,5.63
2022-12-26T09:56:18.242Z,5.40
2022-12-26T09:58:57.422Z,5.32
2022-12-26T10:01:29.676Z,5.63
2022-12-26T10:04:00.819Z,5.10
2022-12-26T10:06:37.127Z,5.47
2022-12-26T10:09:46.742Z,6.60
2022-12-26T10:12:34.117Z,5.40
2022-12-26T10:15:16.354Z,5.35
2022-12-26T10:17:54.149Z,5.38
2022-12-26T10:20:33.883Z,4.93
2022-12-26T10:23:30.458Z,5.00
2022-12-26T10:26:07.151Z,5.65
2022-12-26T10:28:40.750Z,4.88
2022-12-26T10:31:20.674Z,5.35
2022-12-26T10:33:55.037Z,5.28
2022-12-26T10:36:34.082Z,4.40
2022-12-26T10:39:06.355Z,4.90
2022-12-26T10:41:43.359Z,5.63
2022-12-26T10:44:13.058Z,4.53
2022-12-26T10:47:15.526Z,4.80
2022-12-26T10:49:46.647Z,5.32
2022-12-26T10:52:18.212Z,4.32
2022-12-26T10:54:51.856Z,4.57
2022-12-26T10:57:42.362Z,4.90
2022-12-26T11:00:20.516Z,4.63
2022-12-26T11:03:05.784Z,5.28
2022-12-26T11:08:31.439Z,4.57
2022-12-26T11:11:06.617Z,4.50
2022-12-26T11:13:42.368Z,4.97
2022-12-26T11:16:11.846Z,5.00
2022-12-26T11:18:50.150Z,4.45
2022-12-26T11:21:25.733Z,3.72
2022-12-26T11:24:12.017Z,3.95
2022-12-26T11:26:40.561Z,4.38
2022-12-26T11:29:14.859Z,3.72
2022-12-26T11:31:52.345Z,4.10
2022-12-26T11:34:32.564Z,3.50
2022-12-26T11:37:01.370Z,3.65
2022-12-26T11:39:34.753Z,4.00
2022-12-26T11:42:11.830Z,4.15
2022-12-26T11:44:45.479Z,4.53
2022-12-26T11:47:16.213Z,4.28
2022-12-26T11:52:52.752Z,4.18
2022-12-26T11:55:34.455Z,4.45
2022-12-26T11:58:16.553Z,4.13
2022-12-26T12:01:06.125Z,4.07
2022-12-26T12:03:40.060Z,4.38
2022-12-26T12:06:47.197Z,3.85
2022-12-26T12:09:24.942Z,3.72
2022-12-26T12:12:02.701Z,4.38
2022-12-26T12:14:52.639Z,4.20
2022-12-26T12:17:28.789Z,4.93
2022-12-26T12:20:18.763Z,4.07
2022-12-26T12:23:15.670Z,4.18
2022-12-26T12:25:59.993Z,4.03
2022-12-26T12:28:57.677Z,4.05
2022-12-26T12:31:37.337Z,4.80
2022-12-26T12:34:20.676Z,4.15
2022-12-26T12:37:06.679Z,4.90
2022-12-26T12:39:47.618Z,4.32
2022-12-26T12:42:36.476Z,3.80
2022-12-26T12:45:27.068Z,4.30
2022-12-26T12:48:21.331Z,4.22
2022-12-26T12:50:58.028Z,4.25
2022-12-26T12:53:44.950Z,4.63
2022-12-26T12:56:25.932Z,4.00
2022-12-26T12:59:05.478Z,4.50
2022-12-26T13:01:39.677Z,4.15
2022-12-26T13:04:14.431Z,4.43
2022-12-26T13:06:48.830Z,4.32
2022-12-26T13:09:21.537Z,3.97
2022-12-26T13:11:58.208Z,4.35
2022-12-26T13:14:32.335Z,3.97
2022-12-26T13:17:08.988Z,3.90
2022-12-26T13:19:42.817Z,3.90
2022-12-26T13:22:18.466Z,4.47
2022-12-26T13:24:52.283Z,5.10
2022-12-26T13:27:28.123Z,4.07
2022-12-26T13:29:56.517Z,4.65
2022-12-26T13:32:27.921Z,4.75
2022-12-26T13:34:58.547Z,4.70
2022-12-26T13:40:29.142Z,4.53
2022-12-26T13:43:22.022Z,5.30
2022-12-26T13:45:56.586Z,4.38
2022-12-26T13:49:26.665Z,4.75
2022-12-26T13:51:59.405Z,4.72
2022-12-26T13:54:30.150Z,4.50
2022-12-26T14:00:24.274Z,4.47
2022-12-26T14:03:42.885Z,5.18
2022-12-26T14:06:41.930Z,4.50
2022-12-26T14:09:23.738Z,4.25
2022-12-26T14:12:18.025Z,4.43
2022-12-26T14:15:04.972Z,6.03
2022-12-26T14:17:44.272Z,4.47
2022-12-26T14:20:39.428Z,4.85
2022-12-26T14:23:28.794Z,4.95
2022-12-26T14:26:05.734Z,4.85
2022-12-26T14:28:58.433Z,4.93
2022-12-26T14:31:37.769Z,4.80
2022-12-26T14:34:22.575Z,4.85
2022-12-26T14:37:00.158Z,5.43
2022-12-26T14:39:40.139Z,4.60
2022-12-26T14:42:40.518Z,4.72
2022-12-26T14:45:39.355Z,5.18
2022-12-26T14:48:41.989Z,5.15
2022-12-26T14:51:37.692Z,4.53
2022-12-26T14:54:50.897Z,4.65
2022-12-26T14:57:48.699Z,5.10
2022-12-26T15:00:34.368Z,4.60
2022-12-26T15:03:52.017Z,4.90
2022-12-26T15:07:00.462Z,4.85
2022-12-26T15:09:58.333Z,4.88
2022-12-26T15:13:26.824Z,5.03
2022-12-26T15:16:31.105Z,6.18
2022-12-26T15:20:06.526Z,6.82
2022-12-26T15:23:31.210Z,5.07
2022-12-26T15:26:25.933Z,5.18
2022-12-26T15:29:23.929Z,6.00
2022-12-26T15:32:12.572Z,5.15
2022-12-26T15:34:54.410Z,5.53
2022-12-26T15:37:51.643Z,5.43
2022-12-26T15:40:25.583Z,5.30
2022-12-26T15:43:26.312Z,4.40
2022-12-26T15:46:09.151Z,5.95
2022-12-26T15:48:57.532Z,5.45
2022-12-26T15:51:42.429Z,4.53
2022-12-26T15:54:39.530Z,4.65
2022-12-26T15:57:17.424Z,5.40
2022-12-26T16:00:17.042Z,5.00
2022-12-26T16:03:03.273Z,4.50
2022-12-26T16:05:41.733Z,4.95
2022-12-26T16:08:44.947Z,5.65
2022-12-26T16:11:20.518Z,5.40
2022-12-26T16:13:57.165Z,5.25
2022-12-26T16:16:34.636Z,5.68
2022-12-26T16:19:20.735Z,5.45
2022-12-26T16:22:13.340Z,8.60
2022-12-26T16:24:43.315Z,20.95
2022-12-26T16:27:18.610Z,24.42
2022-12-26T16:29:49.576Z,22.75
2022-12-26T16:32:22.835Z,20.40
2022-12-26T16:34:51.563Z,18.42
2022-12-26T16:37:24.038Z,17.67
2022-12-26T16:40:18.124Z,9.40
2022-12-26T16:42:56.523Z,6.15
2022-12-26T16:45:26.185Z,5.95
2022-12-26T16:47:56.904Z,6.43
2022-12-26T16:53:13.939Z,4.50
2022-12-26T16:55:46.452Z,4.60
2022-12-26T16:58:20.504Z,4.75
2022-12-26T17:01:10.811Z,4.88
2022-12-26T17:03:50.377Z,4.78
2022-12-26T17:06:25.023Z,4.60
2022-12-26T17:08:54.290Z,4.78
2022-12-26T17:11:30.859Z,4.32
2022-12-26T17:14:01.143Z,4.15
2022-12-26T17:16:32.245Z,5.72
2022-12-26T17:19:18.802Z,10.02
2022-12-26T17:22:23.034Z,23.45
2022-12-26T17:24:52.963Z,32.38
2022-12-26T17:27:24.359Z,27.27
2022-12-26T17:29:57.072Z,33.33
2022-12-26T17:32:33.240Z,31.33
2022-12-26T17:35:07.007Z,26.88
2022-12-26T17:37:35.692Z,26.60
2022-12-26T17:40:22.595Z,18.02
2022-12-26T17:42:53.093Z,12.00
2022-12-26T17:45:24.185Z,12.80
2022-12-26T17:47:53.301Z,14.68
2022-12-26T17:50:25.188Z,15.23
2022-12-26T17:52:53.759Z,7.65
2022-12-26T17:55:26.932Z,5.65
2022-12-26T17:57:55.349Z,5.90
2022-12-26T18:00:27.325Z,7.25
2022-12-26T18:02:57.989Z,7.03
2022-12-26T18:07:56.858Z,6.72
2022-12-26T18:10:29.745Z,7.47
2022-12-26T18:12:59.404Z,12.63
2022-12-26T18:15:30.138Z,10.52
2022-12-26T18:20:30.544Z,8.48
2022-12-26T18:22:59.171Z,8.63
2022-12-26T18:25:29.021Z,7.68
2022-12-26T18:27:57.545Z,5.73
2022-12-26T18:30:27.499Z,9.13
2022-12-26T18:32:56.200Z,4.80
2022-12-26T18:35:24.608Z,7.57
2022-12-26T18:37:55.187Z,7.80
2022-12-26T18:40:32.332Z,7.03
2022-12-26T18:43:01.075Z,6.20
2022-12-26T18:45:29.873Z,6.40
2022-12-26T18:47:59.139Z,6.28
2022-12-26T18:50:28.640Z,7.63
2022-12-26T18:52:58.751Z,6.53
2022-12-26T18:55:28.674Z,6.05
2022-12-26T18:57:57.511Z,4.97
2022-12-26T19:00:26.599Z,5.55
2022-12-26T19:02:55.825Z,4.53
2022-12-26T19:05:27.467Z,5.28
2022-12-26T19:07:58.363Z,4.50
2022-12-26T19:10:29.412Z,5.07
2022-12-26T19:13:05.072Z,5.30
2022-12-26T19:15:35.998Z,4.78
2022-12-26T19:18:05.888Z,4.57
2022-12-26T19:20:37.752Z,4.70
2022-12-26T19:23:12.291Z,5.47
2022-12-26T19:25:40.675Z,5.47
2022-12-26T19:28:09.084Z,4.82
2022-12-26T19:30:39.245Z,7.80
2022-12-26T19:33:07.817Z,4.60
2022-12-26T19:35:36.211Z,4.65
2022-12-26T19:38:04.692Z,4.65
2022-12-26T19:40:34.510Z,5.28
2022-12-26T19:43:02.955Z,4.57
2022-12-26T19:45:31.317Z,4.70
2022-12-26T19:47:59.712Z,5.53
2022-12-26T19:50:28.115Z,5.35
2022-12-26T19:52:56.571Z,5.00
2022-12-26T19:55:25.018Z,4.75
2022-12-26T19:57:54.761Z,5.18
2022-12-26T20:00:23.191Z,5.20
2022-12-26T20:02:51.622Z,4.78
2022-12-26T20:05:20.099Z,4.97
2022-12-26T20:07:48.500Z,5.13
2022-12-26T20:10:16.938Z,5.00
2022-12-26T20:12:45.290Z,5.00
2022-12-26T20:15:14.985Z,4.78
2022-12-26T20:17:43.401Z,5.17
2022-12-26T20:20:11.884Z,4.88
2022-12-26T20:22:40.298Z,5.10
2022-12-26T20:25:10.048Z,4.78
2022-12-26T20:27:40.613Z,5.17
2022-12-26T20:30:10.548Z,5.18
2022-12-26T20:32:44.000Z,5.45
2022-12-26T20:35:12.381Z,4.82
2022-12-26T20:37:40.671Z,5.63
2022-12-26T20:40:10.558Z,5.00
2022-12-26T20:42:38.960Z,5.15
2022-12-26T20:45:09.065Z,5.90
2022-12-26T20:47:39.184Z,5.72
2022-12-26T20:50:08.930Z,6.05
2022-12-26T20:52:37.384Z,9.50
2022-12-26T20:55:06.924Z,5.85
2022-12-26T20:57:35.221Z,5.55
2022-12-26T21:00:03.972Z,5.43
2022-12-26T21:02:32.490Z,5.90
2022-12-26T21:05:02.393Z,5.53
2022-12-26T21:07:33.447Z,5.38
2022-12-26T21:10:01.977Z,5.55
2022-12-26T21:12:30.346Z,5.40
2022-12-26T21:14:58.639Z,5.20
2022-12-26T21:17:27.083Z,5.82
2022-12-26T21:19:55.373Z,6.47
2022-12-26T21:22:26.243Z,5.38
2022-12-26T21:24:54.574Z,5.30
2022-12-26T21:27:22.962Z,5.18
2022-12-26T21:29:51.378Z,5.30
2022-12-26T21:32:19.995Z,5.57
2022-12-26T21:34:48.317Z,6.28
2022-12-26T21:37:34.321Z,5.63
2022-12-26T21:40:05.554Z,5.40
2022-12-26T21:42:33.914Z,5.40
2022-12-26T21:45:02.358Z,4.97
2022-12-26T21:47:30.719Z,5.53
2022-12-26T21:49:59.082Z,5.13
2022-12-26T21:52:27.655Z,6.00
2022-12-26T21:55:13.319Z,5.65
2022-12-26T21:57:43.120Z,5.38
2022-12-26T22:00:14.636Z,5.70
2022-12-26T22:03:00.768Z,5.47
2022-12-26T22:05:31.555Z,5.13
2022-12-26T22:10:50.064Z,6.77
2022-12-26T22:13:21.733Z,4.90
2022-12-26T22:16:07.863Z,5.13
2022-12-26T22:18:40.314Z,5.38
2022-12-26T22:21:11.967Z,5.85
2022-12-26T22:23:41.590Z,5.13
2022-12-26T22:26:12.594Z,4.80
2022-12-26T22:28:43.560Z,5.18
2022-12-26T22:31:21.173Z,4.85
2022-12-26T22:33:55.254Z,5.18
2022-12-26T22:36:23.823Z,4.65
2022-12-26T22:38:52.373Z,5.70
2022-12-26T22:41:20.914Z,5.68
2022-12-26T22:43:51.040Z,4.95
2022-12-26T22:46:20.164Z,5.75
2022-12-26T22:48:48.637Z,5.40
2022-12-26T22:51:19.587Z,5.85
2022-12-26T22:53:48.754Z,5.25
2022-12-26T22:56:17.120Z,5.68
2022-12-26T22:58:45.416Z,5.10
2022-12-26T23:01:17.514Z,5.78
2022-12-26T23:03:46.420Z,6.05
2022-12-26T23:06:21.958Z,5.90
2022-12-26T23:08:52.982Z,5.80
2022-12-26T23:11:22.207Z,5.85
2022-12-26T23:13:51.591Z,5.85
2022-12-26T23:16:29.980Z,5.60
2022-12-26T23:19:20.037Z,5.40
2022-12-26T23:21:51.570Z,5.95
2022-12-26T23:24:22.946Z,6.07
2022-12-26T23:26:53.742Z,5.88
2022-12-26T23:29:42.557Z,5.38
2022-12-26T23:32:13.245Z,5.72
2022-12-26T23:37:09.634Z,5.45
2022-12-26T23:39:37.968Z,5.38
2022-12-26T23:42:06.716Z,5.32
2022-12-26T23:44:35.154Z,5.75
2022-12-26T23:47:03.729Z,5.55
2022-12-26T23:49:33.478Z,6.85
2022-12-26T23:52:02.182Z,6.57
2022-12-26T23:54:30.625Z,6.13
2022-12-26T23:56:59.324Z,6.00
2022-12-26T23:59:27.931Z,5.35
